createdAt,value
2023-02-15T00:00:13.037Z,1.10
2023-02-15T00:02:41.518Z,1.00
2023-02-15T00:05:10.624Z,0.90
2023-02-15T00:07:40.230Z,0.90
2023-02-15T00:10:09.536Z,1.00
2023-02-15T00:12:37.871Z,0.90
2023-02-15T00:15:06.688Z,0.90
2023-02-15T00:17:34.876Z,0.90
2023-02-15T00:20:03.123Z,0.90
2023-02-15T00:22:31.366Z,0.80
2023-02-15T00:25:00.927Z,0.70
2023-02-15T00:27:29.129Z,0.70
2023-02-15T00:29:57.311Z,0.60
2023-02-15T00:32:25.648Z,0.60
2023-02-15T00:34:53.862Z,0.50
2023-02-15T00:37:22.379Z,0.40
2023-02-15T00:39:50.604Z,0.40
2023-02-15T00:42:20.306Z,0.40
2023-02-15T00:44:48.499Z,0.30
2023-02-15T00:47:16.700Z,0.30
2023-02-15T00:49:44.986Z,0.50
2023-02-15T00:52:13.255Z,0.30
2023-02-15T00:54:41.418Z,0.30
2023-02-15T00:57:12.156Z,0.30
2023-02-15T00:59:41.716Z,0.30
2023-02-15T01:02:10.294Z,0.30
2023-02-15T01:04:38.519Z,0.30
2023-02-15T01:07:06.711Z,0.40
2023-02-15T01:09:34.902Z,0.40
2023-02-15T01:12:03.085Z,0.30
2023-02-15T01:14:31.329Z,0.40
2023-02-15T01:17:00.886Z,0.30
2023-02-15T01:19:29.119Z,0.40
2023-02-15T01:21:57.307Z,0.40
2023-02-15T01:24:25.520Z,0.50
2023-02-15T01:26:53.828Z,0.50
2023-02-15T01:29:22.499Z,0.50
2023-02-15T01:31:50.780Z,0.50
2023-02-15T01:34:20.464Z,0.50
2023-02-15T01:36:49.257Z,0.50
2023-02-15T01:39:17.630Z,0.50
2023-02-15T01:41:45.934Z,0.50
2023-02-15T01:44:49.242Z,0.60
2023-02-15T01:47:20.467Z,0.60
2023-02-15T01:49:52.456Z,0.60
2023-02-15T01:52:21.246Z,0.60
2023-02-15T01:54:50.106Z,0.50
2023-02-15T01:57:21.660Z,0.50
2023-02-15T01:59:53.915Z,0.50
2023-02-15T02:02:25.285Z,0.40
2023-02-15T02:04:57.090Z,0.50
2023-02-15T02:07:29.302Z,0.50
2023-02-15T02:09:57.621Z,0.60
2023-02-15T02:12:27.286Z,0.60
2023-02-15T02:14:56.609Z,0.50
2023-02-15T02:17:35.939Z,0.60
2023-02-15T02:20:21.802Z,0.70
2023-02-15T02:23:27.078Z,0.80
2023-02-15T02:26:37.019Z,0.90
2023-02-15T02:29:36.732Z,0.90
2023-02-15T02:32:31.171Z,0.80
2023-02-15T02:35:04.288Z,0.90
2023-02-15T02:37:39.253Z,0.90
2023-02-15T02:40:15.612Z,0.90
2023-02-15T02:42:48.927Z,1.00
2023-02-15T02:45:22.550Z,1.00
2023-02-15T02:47:55.967Z,1.00
2023-02-15T02:50:29.162Z,1.00
2023-02-15T02:52:59.839Z,1.00
2023-02-15T02:55:32.496Z,1.00
2023-02-15T02:58:06.834Z,1.00
2023-02-15T03:00:41.046Z,1.00
2023-02-15T03:03:15.966Z,1.10
2023-02-15T03:05:49.243Z,1.00
2023-02-15T03:08:22.911Z,1.10
2023-02-15T03:10:54.781Z,1.00
2023-02-15T03:13:23.958Z,1.00
2023-02-15T03:16:11.314Z,1.00
2023-02-15T03:18:45.234Z,1.00
2023-02-15T03:21:23.313Z,1.00
2023-02-15T03:23:58.621Z,1.00
2023-02-15T03:26:28.364Z,1.10
2023-02-15T03:28:59.368Z,1.10
2023-02-15T03:31:30.946Z,1.10
2023-02-15T03:34:00.258Z,1.10
2023-02-15T03:36:35.009Z,0.90
2023-02-15T03:39:10.385Z,0.80
2023-02-15T03:41:44.768Z,0.80
2023-02-15T03:44:18.614Z,0.80
2023-02-15T03:46:52.658Z,0.80
2023-02-15T03:49:26.649Z,0.80
2023-02-15T03:51:58.767Z,0.80
2023-02-15T03:54:44.853Z,0.80
2023-02-15T03:57:33.672Z,0.70
2023-02-15T04:00:20.921Z,0.70
2023-02-15T04:03:10.665Z,0.70
2023-02-15T04:05:39.021Z,0.60
2023-02-15T04:08:09.179Z,0.60
2023-02-15T04:10:56.092Z,0.70
2023-02-15T04:13:25.565Z,0.70
2023-02-15T04:16:05.365Z,0.70
2023-02-15T04:18:53.237Z,0.80
2023-02-15T04:21:40.546Z,0.80
2023-02-15T04:24:28.714Z,0.80
2023-02-15T04:26:57.915Z,0.80
2023-02-15T04:29:27.255Z,0.90
2023-02-15T04:31:57.162Z,0.80
2023-02-15T04:34:25.794Z,0.70
2023-02-15T04:36:54.071Z,0.70
2023-02-15T04:39:23.766Z,0.70
2023-02-15T04:41:51.992Z,0.70
2023-02-15T04:44:20.328Z,0.70
2023-02-15T04:46:48.512Z,0.70
2023-02-15T04:49:16.872Z,0.70
2023-02-15T04:51:45.119Z,0.70
2023-02-15T04:54:13.394Z,0.60
2023-02-15T04:56:43.437Z,0.50
2023-02-15T04:59:12.395Z,0.50
2023-02-15T05:01:41.029Z,0.60
2023-02-15T05:04:10.334Z,0.60
2023-02-15T05:06:38.723Z,0.60
2023-02-15T05:09:07.270Z,0.60
2023-02-15T05:11:35.568Z,0.60
2023-02-15T05:14:05.564Z,0.60
2023-02-15T05:16:34.021Z,0.60
2023-02-15T05:19:02.547Z,0.50
2023-02-15T05:21:30.908Z,0.50
2023-02-15T05:23:59.210Z,0.40
2023-02-15T05:26:45.628Z,0.40
2023-02-15T05:29:15.268Z,0.30
2023-02-15T05:31:48.432Z,0.30
2023-02-15T05:34:16.834Z,0.30
2023-02-15T05:36:45.039Z,0.30
2023-02-15T05:39:13.334Z,0.20
2023-02-15T05:41:41.602Z,0.30
2023-02-15T05:44:09.885Z,0.20
2023-02-15T05:46:39.529Z,0.10
2023-02-15T05:49:07.781Z,0.20
2023-02-15T05:51:36.182Z,0.10
2023-02-15T05:54:04.433Z,0.10
2023-02-15T05:56:33.642Z,0.10
2023-02-15T05:59:01.961Z,0.10
2023-02-15T06:01:30.383Z,0.10
2023-02-15T06:04:00.058Z,0.10
2023-02-15T06:06:28.327Z,0.10
2023-02-15T06:08:56.711Z,0.00
2023-02-15T06:11:25.121Z,0.10
2023-02-15T06:13:53.389Z,0.10
2023-02-15T06:16:21.761Z,0.10
2023-02-15T06:18:51.386Z,0.10
2023-02-15T06:21:22.652Z,0.10
2023-02-15T06:23:50.944Z,0.10
2023-02-15T06:26:19.361Z,0.00
2023-02-15T06:28:47.626Z,-0.20
2023-02-15T06:31:16.475Z,-0.30
2023-02-15T06:33:44.772Z,-0.40
2023-02-15T06:36:13.634Z,-0.30
2023-02-15T06:38:43.314Z,-0.20
2023-02-15T06:41:11.586Z,-0.30
2023-02-15T06:43:41.008Z,-0.20
2023-02-15T06:46:09.413Z,-0.30
2023-02-15T06:48:37.645Z,-0.30
2023-02-15T06:51:05.956Z,-0.30
2023-02-15T06:53:34.251Z,-0.30
2023-02-15T06:56:10.275Z,-0.30
2023-02-15T06:58:38.701Z,-0.40
2023-02-15T07:01:08.206Z,-0.30
2023-02-15T07:03:37.236Z,-0.30
2023-02-15T07:06:09.371Z,-0.30
2023-02-15T07:08:38.362Z,-0.20
2023-02-15T07:11:26.437Z,-0.20
2023-02-15T07:13:54.878Z,-0.10
2023-02-15T07:16:23.665Z,0.10
2023-02-15T07:18:51.963Z,0.20
2023-02-15T07:21:20.226Z,0.30
2023-02-15T07:23:48.826Z,0.40
2023-02-15T07:26:18.522Z,0.50
2023-02-15T07:28:46.734Z,0.60
2023-02-15T07:31:15.049Z,0.70
2023-02-15T07:33:43.540Z,0.80
2023-02-15T07:36:13.169Z,0.90
2023-02-15T07:38:43.557Z,0.80
2023-02-15T07:41:13.589Z,0.60
2023-02-15T07:43:44.749Z,0.50
2023-02-15T07:46:14.901Z,0.40
2023-02-15T07:48:44.110Z,0.40
2023-02-15T07:51:13.769Z,0.50
2023-02-15T07:53:42.527Z,0.60
2023-02-15T07:56:13.766Z,0.60
2023-02-15T07:58:56.873Z,0.70
2023-02-15T08:01:27.148Z,0.70
2023-02-15T08:03:56.139Z,0.70
2023-02-15T08:06:25.694Z,0.70
2023-02-15T08:08:54.126Z,0.70
2023-02-15T08:11:37.567Z,0.90
2023-02-15T08:14:09.579Z,1.00
2023-02-15T08:16:39.739Z,1.00
2023-02-15T08:19:09.991Z,1.00
2023-02-15T08:21:40.158Z,0.80
2023-02-15T08:24:10.378Z,0.90
2023-02-15T08:26:42.226Z,1.00
2023-02-15T08:29:12.327Z,1.20
2023-02-15T08:31:42.789Z,1.20
2023-02-15T08:34:12.352Z,1.40
2023-02-15T08:36:40.603Z,1.50
2023-02-15T08:39:09.243Z,1.60
2023-02-15T08:41:38.760Z,1.80
2023-02-15T08:44:08.565Z,1.90
2023-02-15T08:46:40.587Z,2.10
2023-02-15T08:49:08.862Z,2.20
2023-02-15T08:51:39.520Z,2.20
2023-02-15T08:54:10.013Z,1.90
2023-02-15T08:56:40.062Z,1.80
2023-02-15T08:59:09.791Z,1.80
2023-02-15T09:01:40.463Z,1.90
2023-02-15T09:04:10.837Z,2.10
2023-02-15T09:06:40.093Z,2.30
2023-02-15T09:09:08.915Z,2.50
2023-02-15T09:11:39.162Z,2.70
2023-02-15T09:14:14.468Z,2.80
2023-02-15T09:16:47.417Z,2.70
2023-02-15T09:19:15.783Z,2.60
2023-02-15T09:21:44.318Z,2.70
2023-02-15T09:24:14.646Z,2.80
2023-02-15T09:26:44.646Z,2.90
2023-02-15T09:29:14.055Z,3.10
2023-02-15T09:31:45.544Z,3.30
2023-02-15T09:34:14.244Z,3.50
2023-02-15T09:36:43.207Z,3.30
2023-02-15T09:39:13.687Z,3.80
2023-02-15T09:42:12.650Z,3.80
2023-02-15T09:45:19.517Z,3.90
2023-02-15T09:48:10.635Z,4.00
2023-02-15T09:50:50.699Z,4.10
2023-02-15T09:53:34.204Z,4.30
2023-02-15T09:56:09.005Z,4.40
2023-02-15T09:58:47.577Z,4.60
2023-02-15T10:01:25.975Z,4.60
2023-02-15T10:04:11.804Z,4.80
2023-02-15T10:06:47.299Z,4.90
2023-02-15T10:09:29.889Z,5.10
2023-02-15T10:12:10.484Z,5.30
2023-02-15T10:14:52.175Z,5.60
2023-02-15T10:17:34.825Z,5.80
2023-02-15T10:20:16.218Z,6.00
2023-02-15T10:23:00.392Z,6.00
2023-02-15T10:25:41.177Z,5.90
2023-02-15T10:28:17.832Z,6.10
2023-02-15T10:30:50.178Z,6.50
2023-02-15T10:33:37.474Z,6.90
2023-02-15T10:36:19.290Z,7.30
2023-02-15T10:38:49.528Z,7.70
2023-02-15T10:41:31.478Z,7.80
2023-02-15T10:44:18.303Z,8.80
2023-02-15T10:47:06.327Z,10.80
2023-02-15T10:49:53.923Z,12.90
2023-02-15T10:52:35.333Z,14.50
2023-02-15T10:55:13.626Z,16.00
2023-02-15T10:57:50.247Z,17.00
2023-02-15T11:00:24.805Z,18.00
2023-02-15T11:03:19.181Z,18.10
2023-02-15T11:05:59.567Z,18.40
2023-02-15T11:08:34.321Z,19.50
2023-02-15T11:11:07.571Z,19.80
2023-02-15T11:13:38.978Z,20.70
2023-02-15T11:16:10.501Z,21.70
2023-02-15T11:18:39.964Z,22.90
2023-02-15T11:21:16.142Z,23.10
2023-02-15T11:23:47.436Z,23.60
2023-02-15T11:26:19.188Z,23.80
2023-02-15T11:28:51.707Z,24.60
2023-02-15T11:31:22.575Z,25.40
2023-02-15T11:33:54.733Z,24.00
2023-02-15T11:36:26.862Z,23.90
2023-02-15T11:39:03.070Z,23.40
2023-02-15T11:41:36.554Z,22.70
2023-02-15T11:44:14.432Z,23.00
2023-02-15T11:46:43.010Z,23.30
2023-02-15T11:49:24.507Z,23.80
2023-02-15T11:51:53.832Z,24.40
2023-02-15T11:54:28.876Z,24.40
2023-02-15T11:57:01.035Z,24.30
2023-02-15T11:59:33.400Z,23.70
2023-02-15T12:02:01.669Z,22.90
2023-02-15T12:04:35.374Z,22.80
2023-02-15T12:07:12.724Z,22.60
2023-02-15T12:09:50.589Z,22.50
2023-02-15T12:12:27.319Z,23.30
2023-02-15T12:14:56.994Z,23.90
2023-02-15T12:17:27.911Z,24.20
2023-02-15T12:19:59.289Z,24.90
2023-02-15T12:22:30.229Z,25.10
2023-02-15T12:25:03.407Z,25.30
2023-02-15T12:27:34.267Z,24.60
2023-02-15T12:30:08.241Z,24.60
2023-02-15T12:32:48.383Z,25.20
2023-02-15T12:35:31.697Z,23.70
2023-02-15T12:38:05.308Z,23.50
2023-02-15T12:40:36.648Z,23.70
2023-02-15T12:43:09.768Z,24.10
2023-02-15T12:45:39.793Z,24.20
2023-02-15T12:48:18.022Z,23.70
2023-02-15T12:50:54.718Z,23.70
2023-02-15T12:53:25.260Z,24.00
2023-02-15T12:55:57.896Z,23.80
2023-02-15T12:58:27.374Z,23.90
2023-02-15T13:01:13.181Z,23.30
2023-02-15T13:04:00.499Z,23.50
2023-02-15T13:06:29.631Z,23.10
2023-02-15T13:09:00.689Z,22.90
2023-02-15T13:11:35.418Z,22.40
2023-02-15T13:14:05.993Z,21.80
2023-02-15T13:16:37.156Z,21.40
2023-02-15T13:19:09.592Z,20.80
2023-02-15T13:21:41.706Z,20.10
2023-02-15T13:24:20.124Z,19.40
2023-02-15T13:26:50.142Z,18.90
2023-02-15T13:29:24.515Z,18.60
2023-02-15T13:31:54.719Z,18.60
2023-02-15T13:34:26.315Z,18.60
2023-02-15T13:37:01.772Z,18.90
2023-02-15T13:39:40.586Z,19.40
2023-02-15T13:42:22.571Z,19.70
2023-02-15T13:45:10.682Z,19.60
2023-02-15T13:47:51.953Z,20.10
2023-02-15T13:50:35.706Z,20.60
2023-02-15T13:53:21.655Z,21.00
2023-02-15T13:55:54.366Z,21.10
2023-02-15T13:58:46.737Z,20.90
2023-02-15T14:01:21.651Z,20.80
2023-02-15T14:04:32.101Z,20.70
2023-02-15T14:07:23.781Z,20.60
2023-02-15T14:10:04.887Z,20.20
2023-02-15T14:12:51.243Z,19.60
2023-02-15T14:15:46.394Z,18.80
2023-02-15T14:18:24.854Z,18.00
2023-02-15T14:21:09.131Z,17.00
2023-02-15T14:23:51.414Z,15.80
2023-02-15T14:26:27.784Z,15.00
2023-02-15T14:29:07.108Z,14.20
2023-02-15T14:31:41.928Z,13.60
2023-02-15T14:34:20.470Z,13.00
2023-02-15T14:36:49.541Z,12.70
2023-02-15T14:39:48.718Z,12.40
2023-02-15T14:42:25.970Z,11.90
2023-02-15T14:45:02.756Z,11.50
2023-02-15T14:47:38.191Z,10.80
2023-02-15T14:50:40.647Z,10.20
2023-02-15T14:53:38.561Z,10.00
2023-02-15T14:56:27.114Z,9.80
2023-02-15T14:59:20.890Z,9.60
2023-02-15T15:01:57.533Z,9.10
2023-02-15T15:04:30.891Z,9.00
2023-02-15T15:07:14.688Z,8.60
2023-02-15T15:12:42.452Z,8.40
2023-02-15T15:15:15.797Z,8.30
2023-02-15T15:17:58.700Z,8.10
2023-02-15T15:20:46.652Z,7.90
2023-02-15T15:23:44.268Z,7.70
2023-02-15T15:26:27.805Z,7.60
2023-02-15T15:29:08.421Z,7.40
2023-02-15T15:31:50.002Z,7.10
2023-02-15T15:34:38.662Z,7.00
2023-02-15T15:37:49.675Z,6.90
2023-02-15T15:40:43.868Z,6.80
2023-02-15T15:43:53.971Z,6.70
2023-02-15T15:46:56.836Z,6.70
2023-02-15T15:49:30.315Z,6.60
2023-02-15T15:52:03.158Z,6.60
2023-02-15T15:54:32.116Z,6.40
2023-02-15T15:57:04.349Z,6.30
2023-02-15T15:59:34.919Z,6.30
2023-02-15T16:02:08.792Z,6.10
2023-02-15T16:04:37.909Z,6.00
2023-02-15T16:07:26.751Z,6.00
2023-02-15T16:09:59.928Z,5.80
2023-02-15T16:12:30.282Z,5.60
2023-02-15T16:14:59.399Z,5.50
2023-02-15T16:17:33.228Z,5.50
2023-02-15T16:20:05.403Z,5.50
2023-02-15T16:22:35.190Z,5.40
2023-02-15T16:25:30.533Z,5.30
2023-02-15T16:27:58.874Z,5.00
2023-02-15T16:30:31.126Z,4.90
2023-02-15T16:33:09.069Z,4.90
2023-02-15T16:35:39.192Z,4.80
2023-02-15T16:38:07.837Z,4.80
2023-02-15T16:40:53.463Z,4.80
2023-02-15T16:43:27.140Z,4.70
2023-02-15T16:46:04.645Z,4.70
2023-02-15T16:48:36.780Z,4.50
2023-02-15T16:51:05.503Z,4.50
2023-02-15T16:53:33.946Z,4.40
2023-02-15T16:56:04.769Z,4.30
2023-02-15T16:58:41.049Z,4.10
2023-02-15T17:01:12.542Z,4.00
2023-02-15T17:03:43.279Z,3.80
2023-02-15T17:06:22.790Z,3.60
2023-02-15T17:08:51.222Z,3.50
2023-02-15T17:11:21.300Z,3.40
2023-02-15T17:14:16.411Z,3.30
2023-02-15T17:16:50.535Z,3.20
2023-02-15T17:19:24.346Z,3.10
2023-02-15T17:21:55.207Z,3.00
2023-02-15T17:24:34.430Z,2.80
2023-02-15T17:27:04.905Z,2.80
2023-02-15T17:29:39.165Z,2.60
2023-02-15T17:32:14.603Z,2.60
2023-02-15T17:34:51.475Z,2.40
2023-02-15T17:37:29.728Z,2.40
2023-02-15T17:39:59.188Z,2.30
2023-02-15T17:42:27.538Z,2.30
2023-02-15T17:44:55.771Z,2.20
2023-02-15T17:47:27.758Z,2.20
2023-02-15T17:49:57.460Z,2.20
2023-02-15T17:52:30.290Z,2.20
2023-02-15T17:55:15.800Z,2.20
2023-02-15T17:57:43.988Z,2.10
2023-02-15T18:00:34.120Z,2.10
2023-02-15T18:03:19.806Z,2.10
2023-02-15T18:06:06.838Z,2.10
2023-02-15T18:08:52.513Z,2.00
2023-02-15T18:11:37.130Z,2.10
2023-02-15T18:14:06.696Z,2.00
2023-02-15T18:16:37.352Z,1.70
2023-02-15T18:19:06.418Z,1.90
2023-02-15T18:21:36.070Z,1.80
2023-02-15T18:24:04.419Z,1.80
2023-02-15T18:26:33.205Z,1.70
2023-02-15T18:29:01.517Z,1.60
2023-02-15T18:31:29.910Z,1.60
2023-02-15T18:34:00.867Z,1.50
2023-02-15T18:36:33.361Z,1.50
2023-02-15T18:39:08.560Z,1.50
2023-02-15T18:41:37.100Z,1.40
2023-02-15T18:44:10.265Z,1.40
2023-02-15T18:46:38.470Z,1.30
2023-02-15T18:49:06.680Z,1.30
2023-02-15T18:51:40.400Z,1.10
2023-02-15T18:54:18.860Z,1.20
2023-02-15T18:56:50.410Z,1.20
2023-02-15T18:59:19.172Z,1.10
2023-02-15T19:01:47.392Z,1.00
2023-02-15T19:04:15.607Z,1.00
2023-02-15T19:06:47.707Z,1.00
2023-02-15T19:09:21.329Z,1.00
2023-02-15T19:11:52.630Z,0.90
2023-02-15T19:14:29.267Z,0.90
2023-02-15T19:16:58.623Z,0.80
2023-02-15T19:19:27.636Z,0.80
2023-02-15T19:21:56.226Z,0.80
2023-02-15T19:24:38.580Z,0.90
2023-02-15T19:27:08.576Z,0.90
2023-02-15T19:29:37.728Z,0.80
2023-02-15T19:32:06.369Z,0.80
2023-02-15T19:34:34.741Z,0.70
2023-02-15T19:37:02.978Z,0.70
2023-02-15T19:39:38.864Z,0.90
2023-02-15T19:42:07.559Z,0.90
2023-02-15T19:44:35.779Z,0.90
2023-02-15T19:47:04.806Z,0.90
2023-02-15T19:49:33.529Z,0.90
2023-02-15T19:52:01.917Z,0.90
2023-02-15T19:54:34.196Z,1.00
2023-02-15T19:57:02.950Z,1.10
2023-02-15T19:59:34.033Z,1.20
2023-02-15T20:02:02.250Z,1.20
2023-02-15T20:04:30.560Z,1.30
2023-02-15T20:07:02.668Z,1.40
2023-02-15T20:09:35.543Z,1.50
2023-02-15T20:12:04.260Z,1.50
2023-02-15T20:14:32.506Z,1.60
2023-02-15T20:17:00.722Z,1.70
2023-02-15T20:19:28.909Z,1.80
2023-02-15T20:21:58.042Z,1.80
2023-02-15T20:24:29.466Z,1.90
2023-02-15T20:27:00.190Z,2.00
2023-02-15T20:29:28.379Z,2.00
2023-02-15T20:32:01.159Z,2.10
2023-02-15T20:34:29.496Z,2.10
2023-02-15T20:36:57.696Z,2.10
2023-02-15T20:39:25.929Z,2.10
2023-02-15T20:41:54.117Z,2.00
2023-02-15T20:44:26.134Z,1.90
2023-02-15T20:46:56.117Z,1.70
2023-02-15T20:49:25.405Z,1.60
2023-02-15T20:51:54.339Z,1.50
2023-02-15T20:54:24.309Z,1.30
2023-02-15T20:56:54.344Z,1.30
2023-02-15T20:59:36.268Z,1.30
2023-02-15T21:02:15.729Z,1.10
2023-02-15T21:04:44.165Z,1.00
2023-02-15T21:07:16.714Z,0.90
2023-02-15T21:09:44.998Z,0.80
2023-02-15T21:12:15.998Z,0.80
2023-02-15T21:14:46.319Z,0.80
2023-02-15T21:17:15.912Z,0.70
2023-02-15T21:19:44.198Z,0.60
2023-02-15T21:22:14.695Z,0.60
2023-02-15T21:24:49.230Z,0.50
2023-02-15T21:27:17.936Z,0.50
2023-02-15T21:29:47.549Z,0.50
2023-02-15T21:32:15.942Z,0.40
2023-02-15T21:34:44.248Z,0.40
2023-02-15T21:37:27.736Z,0.30
2023-02-15T21:39:56.206Z,0.30
2023-02-15T21:42:41.114Z,0.20
2023-02-15T21:45:34.089Z,0.10
2023-02-15T21:48:02.662Z,0.10
2023-02-15T21:50:48.510Z,-0.10
2023-02-15T21:53:22.744Z,0.00
2023-02-15T21:55:51.498Z,-0.20
2023-02-15T21:58:22.737Z,-0.20
2023-02-15T22:00:54.877Z,-0.20
2023-02-15T22:03:23.833Z,-0.30
2023-02-15T22:05:52.472Z,-0.30
2023-02-15T22:08:21.019Z,-0.30
2023-02-15T22:10:49.740Z,-0.40
2023-02-15T22:13:21.045Z,-0.50
2023-02-15T22:15:49.349Z,-0.50
2023-02-15T22:18:24.704Z,-0.50
2023-02-15T22:20:53.350Z,-0.60
2023-02-15T22:23:22.475Z,-0.50
2023-02-15T22:25:56.024Z,-0.60
2023-02-15T22:28:28.916Z,-0.60
2023-02-15T22:30:57.346Z,-0.60
2023-02-15T22:33:30.278Z,-0.60
2023-02-15T22:35:58.741Z,-0.60
2023-02-15T22:38:27.318Z,-0.60
2023-02-15T22:40:58.912Z,-0.70
2023-02-15T22:43:32.293Z,-0.60
2023-02-15T22:46:05.601Z,-0.70
2023-02-15T22:48:35.854Z,-0.80
2023-02-15T22:51:04.384Z,-0.80
2023-02-15T22:53:32.829Z,-0.70
2023-02-15T22:56:04.704Z,-0.70
2023-02-15T22:58:33.025Z,-0.80
2023-02-15T23:01:03.674Z,-0.70
2023-02-15T23:03:33.606Z,-0.60
2023-02-15T23:06:04.383Z,-0.70
2023-02-15T23:08:32.713Z,-0.80
2023-02-15T23:11:01.282Z,-0.90
2023-02-15T23:13:33.138Z,-0.90
2023-02-15T23:16:02.084Z,-0.90
2023-02-15T23:18:33.751Z,-0.80
2023-02-15T23:21:05.541Z,-0.90
2023-02-15T23:23:34.968Z,-0.90
2023-02-15T23:26:04.748Z,-0.80
2023-02-15T23:28:37.043Z,-0.70
2023-02-15T23:31:16.017Z,-0.80
2023-02-15T23:33:44.902Z,-0.70
2023-02-15T23:36:27.787Z,-0.80
2023-02-15T23:38:57.396Z,-0.80
2023-02-15T23:41:27.387Z,-0.90
2023-02-15T23:43:59.440Z,-0.70
2023-02-15T23:46:31.395Z,-0.80
2023-02-15T23:48:59.637Z,-0.80
2023-02-15T23:51:32.820Z,-0.60
2023-02-15T23:54:01.062Z,-0.80
2023-02-15T23:56:29.790Z,-0.70
2023-02-15T23:58:58.036Z,-0.90
